sensor_id;sensor_type;location;lat;lon;timestamp;P1;durP1;ratioP1;P2;durP2;ratioP2
3337;SDS011;1682;49.286;10.788;2023-03-02T00:01:34;21.57;;;13.40;;
3337;SDS011;1682;49.286;10.788;2023-03-02T00:04:04;26.00;;;12.27;;
3337;SDS011;1682;49.286;10.788;2023-03-02T00:06:33;24.00;;;12.07;;
3337;SDS011;1682;49.286;10.788;2023-03-02T00:09:02;24.27;;;14.73;;
3337;SDS011;1682;49.286;10.788;2023-03-02T00:11:30;16.77;;;10.70;;
3337;SDS011;1682;49.286;10.788;2023-03-02T00:13:58;20.70;;;12.17;;
3337;SDS011;1682;49.286;10.788;2023-03-02T00:16:25;22.43;;;15.17;;
3337;SDS011;1682;49.286;10.788;2023-03-02T00:18:52;17.70;;;11.80;;
3337;SDS011;1682;49.286;10.788;2023-03-02T00:21:19;20.03;;;10.87;;
3337;SDS011;1682;49.286;10.788;2023-03-02T00:23:50;18.87;;;12.20;;
3337;SDS011;1682;49.286;10.788;2023-03-02T00:26:17;18.97;;;13.10;;
3337;SDS011;1682;49.286;10.788;2023-03-02T00:28:44;19.33;;;11.97;;
3337;SDS011;1682;49.286;10.788;2023-03-02T00:31:11;18.73;;;11.67;;
3337;SDS011;1682;49.286;10.788;2023-03-02T00:33:38;20.10;;;13.27;;
3337;SDS011;1682;49.286;10.788;2023-03-02T00:36:07;16.70;;;11.73;;
3337;SDS011;1682;49.286;10.788;2023-03-02T00:38:40;20.53;;;12.50;;
3337;SDS011;1682;49.286;10.788;2023-03-02T00:41:09;21.47;;;13.77;;
3337;SDS011;1682;49.286;10.788;2023-03-02T00:43:36;18.27;;;11.83;;
3337;SDS011;1682;49.286;10.788;2023-03-02T00:46:07;15.80;;;12.53;;
3337;SDS011;1682;49.286;10.788;2023-03-02T00:48:34;18.40;;;12.60;;
3337;SDS011;1682;49.286;10.788;2023-03-02T00:51:01;18.50;;;10.90;;
3337;SDS011;1682;49.286;10.788;2023-03-02T00:53:29;23.00;;;12.50;;
3337;SDS011;1682;49.286;10.788;2023-03-02T00:55:56;25.13;;;12.10;;
3337;SDS011;1682;49.286;10.788;2023-03-02T00:58:25;19.10;;;10.47;;
3337;SDS011;1682;49.286;10.788;2023-03-02T01:00:53;19.50;;;13.63;;
3337;SDS011;1682;49.286;10.788;2023-03-02T01:03:20;17.10;;;10.57;;
3337;SDS011;1682;49.286;10.788;2023-03-02T01:05:47;16.43;;;11.20;;
3337;SDS011;1682;49.286;10.788;2023-03-02T01:08:19;19.17;;;11.27;;
3337;SDS011;1682;49.286;10.788;2023-03-02T01:10:46;19.27;;;12.50;;
3337;SDS011;1682;49.286;10.788;2023-03-02T01:13:13;30.47;;;14.97;;
3337;SDS011;1682;49.286;10.788;2023-03-02T01:15:42;19.63;;;13.10;;
3337;SDS011;1682;49.286;10.788;2023-03-02T01:18:09;24.50;;;10.27;;
3337;SDS011;1682;49.286;10.788;2023-03-02T01:20:36;23.30;;;11.83;;
3337;SDS011;1682;49.286;10.788;2023-03-02T01:23:04;28.57;;;13.00;;
3337;SDS011;1682;49.286;10.788;2023-03-02T01:25:31;20.10;;;11.80;;
3337;SDS011;1682;49.286;10.788;2023-03-02T01:27:58;19.17;;;11.97;;
3337;SDS011;1682;49.286;10.788;2023-03-02T01:30:25;23.33;;;11.33;;
3337;SDS011;1682;49.286;10.788;2023-03-02T01:32:54;24.23;;;10.80;;
3337;SDS011;1682;49.286;10.788;2023-03-02T01:35:21;17.87;;;11.80;;
3337;SDS011;1682;49.286;10.788;2023-03-02T01:37:48;17.40;;;11.20;;
3337;SDS011;1682;49.286;10.788;2023-03-02T01:40:15;18.47;;;11.00;;
3337;SDS011;1682;49.286;10.788;2023-03-02T01:42:49;19.60;;;11.50;;
3337;SDS011;1682;49.286;10.788;2023-03-02T01:48:09;16.60;;;10.07;;
3337;SDS011;1682;49.286;10.788;2023-03-02T01:50:37;19.03;;;11.17;;
3337;SDS011;1682;49.286;10.788;2023-03-02T01:53:04;24.13;;;12.10;;
3337;SDS011;1682;49.286;10.788;2023-03-02T01:55:31;17.30;;;10.83;;
3337;SDS011;1682;49.286;10.788;2023-03-02T01:57:59;18.47;;;11.50;;
3337;SDS011;1682;49.286;10.788;2023-03-02T02:00:29;17.50;;;11.37;;
3337;SDS011;1682;49.286;10.788;2023-03-02T02:02:58;26.57;;;11.40;;
3337;SDS011;1682;49.286;10.788;2023-03-02T02:05:34;20.57;;;11.50;;
3337;SDS011;1682;49.286;10.788;2023-03-02T02:08:02;14.17;;;10.50;;
3337;SDS011;1682;49.286;10.788;2023-03-02T02:10:30;17.90;;;10.20;;
3337;SDS011;1682;49.286;10.788;2023-03-02T02:12:57;15.57;;;10.80;;
3337;SDS011;1682;49.286;10.788;2023-03-02T02:15:24;19.10;;;11.83;;
3337;SDS011;1682;49.286;10.788;2023-03-02T02:17:52;14.37;;;9.90;;
3337;SDS011;1682;49.286;10.788;2023-03-02T02:20:21;19.60;;;11.40;;
3337;SDS011;1682;49.286;10.788;2023-03-02T02:22:54;15.10;;;10.97;;
3337;SDS011;1682;49.286;10.788;2023-03-02T02:25:29;26.33;;;11.87;;
3337;SDS011;1682;49.286;10.788;2023-03-02T02:27:58;14.90;;;10.33;;
3337;SDS011;1682;49.286;10.788;2023-03-02T02:30:25;17.80;;;9.97;;
3337;SDS011;1682;49.286;10.788;2023-03-02T02:33:02;18.80;;;10.57;;
3337;SDS011;1682;49.286;10.788;2023-03-02T02:35:30;16.83;;;10.60;;
3337;SDS011;1682;49.286;10.788;2023-03-02T02:38:01;17.73;;;11.23;;
3337;SDS011;1682;49.286;10.788;2023-03-02T02:40:40;22.33;;;12.13;;
3337;SDS011;1682;49.286;10.788;2023-03-02T02:43:10;17.80;;;11.50;;
3337;SDS011;1682;49.286;10.788;2023-03-02T02:45:37;19.30;;;12.23;;
3337;SDS011;1682;49.286;10.788;2023-03-02T02:48:07;20.73;;;10.57;;
3337;SDS011;1682;49.286;10.788;2023-03-02T02:50:34;20.93;;;9.43;;
3337;SDS011;1682;49.286;10.788;2023-03-02T02:53:02;19.43;;;11.73;;
3337;SDS011;1682;49.286;10.788;2023-03-02T02:55:31;19.90;;;10.63;;
3337;SDS011;1682;49.286;10.788;2023-03-02T02:57:59;14.60;;;10.10;;
3337;SDS011;1682;49.286;10.788;2023-03-02T03:00:34;15.10;;;11.10;;
3337;SDS011;1682;49.286;10.788;2023-03-02T03:03:02;20.73;;;10.10;;
3337;SDS011;1682;49.286;10.788;2023-03-02T03:05:31;21.40;;;10.50;;
3337;SDS011;1682;49.286;10.788;2023-03-02T03:08:07;23.30;;;12.20;;
3337;SDS011;1682;49.286;10.788;2023-03-02T03:10:35;16.50;;;9.50;;
3337;SDS011;1682;49.286;10.788;2023-03-02T03:13:04;16.27;;;10.17;;
3337;SDS011;1682;49.286;10.788;2023-03-02T03:15:31;15.03;;;9.47;;
3337;SDS011;1682;49.286;10.788;2023-03-02T03:18:00;19.40;;;11.43;;
3337;SDS011;1682;49.286;10.788;2023-03-02T03:20:27;16.50;;;9.10;;
3337;SDS011;1682;49.286;10.788;2023-03-02T03:22:54;15.37;;;9.80;;
3337;SDS011;1682;49.286;10.788;2023-03-02T03:25:24;20.73;;;11.10;;
3337;SDS011;1682;49.286;10.788;2023-03-02T03:27:51;16.77;;;9.93;;
3337;SDS011;1682;49.286;10.788;2023-03-02T03:30:18;15.97;;;10.17;;
3337;SDS011;1682;49.286;10.788;2023-03-02T03:32:46;17.87;;;10.20;;
3337;SDS011;1682;49.286;10.788;2023-03-02T03:35:15;27.03;;;11.27;;
3337;SDS011;1682;49.286;10.788;2023-03-02T03:37:43;16.20;;;9.80;;
3337;SDS011;1682;49.286;10.788;2023-03-02T03:40:12;18.93;;;10.90;;
3337;SDS011;1682;49.286;10.788;2023-03-02T03:42:40;17.07;;;11.43;;
3337;SDS011;1682;49.286;10.788;2023-03-02T03:45:07;20.57;;;10.50;;
3337;SDS011;1682;49.286;10.788;2023-03-02T03:47:35;17.30;;;8.93;;
3337;SDS011;1682;49.286;10.788;2023-03-02T03:50:02;19.17;;;10.80;;
3337;SDS011;1682;49.286;10.788;2023-03-02T03:52:31;18.77;;;11.93;;
3337;SDS011;1682;49.286;10.788;2023-03-02T03:54:58;14.83;;;9.60;;
3337;SDS011;1682;49.286;10.788;2023-03-02T03:57:26;15.43;;;8.93;;
3337;SDS011;1682;49.286;10.788;2023-03-02T03:59:54;17.73;;;12.07;;
3337;SDS011;1682;49.286;10.788;2023-03-02T04:02:21;19.27;;;11.80;;
3337;SDS011;1682;49.286;10.788;2023-03-02T04:04:48;21.80;;;11.10;;
3337;SDS011;1682;49.286;10.788;2023-03-02T04:07:16;18.30;;;9.57;;
3337;SDS011;1682;49.286;10.788;2023-03-02T04:09:45;18.33;;;10.10;;
3337;SDS011;1682;49.286;10.788;2023-03-02T04:12:12;17.77;;;10.57;;
3337;SDS011;1682;49.286;10.788;2023-03-02T04:14:39;19.20;;;9.80;;
3337;SDS011;1682;49.286;10.788;2023-03-02T04:17:06;18.50;;;9.80;;
3337;SDS011;1682;49.286;10.788;2023-03-02T04:19:33;19.47;;;10.97;;
3337;SDS011;1682;49.286;10.788;2023-03-02T04:22:01;14.07;;;9.43;;
3337;SDS011;1682;49.286;10.788;2023-03-02T04:24:28;20.83;;;8.83;;
3337;SDS011;1682;49.286;10.788;2023-03-02T04:26:57;18.57;;;11.40;;
3337;SDS011;1682;49.286;10.788;2023-03-02T04:29:24;13.30;;;8.40;;
3337;SDS011;1682;49.286;10.788;2023-03-02T04:31:51;20.60;;;10.60;;
3337;SDS011;1682;49.286;10.788;2023-03-02T04:34:19;15.17;;;9.87;;
3337;SDS011;1682;49.286;10.788;2023-03-02T04:36:47;19.50;;;11.40;;
3337;SDS011;1682;49.286;10.788;2023-03-02T04:39:14;20.60;;;11.70;;
3337;SDS011;1682;49.286;10.788;2023-03-02T04:41:42;17.47;;;11.27;;
3337;SDS011;1682;49.286;10.788;2023-03-02T04:44:11;13.37;;;9.60;;
3337;SDS011;1682;49.286;10.788;2023-03-02T04:46:39;17.20;;;10.83;;
3337;SDS011;1682;49.286;10.788;2023-03-02T04:49:06;17.73;;;9.60;;
3337;SDS011;1682;49.286;10.788;2023-03-02T04:51:35;24.17;;;12.37;;
3337;SDS011;1682;49.286;10.788;2023-03-02T04:54:03;16.10;;;11.00;;
3337;SDS011;1682;49.286;10.788;2023-03-02T04:56:31;20.73;;;11.73;;
3337;SDS011;1682;49.286;10.788;2023-03-02T04:58:58;19.50;;;11.80;;
3337;SDS011;1682;49.286;10.788;2023-03-02T05:01:27;23.00;;;12.80;;
3337;SDS011;1682;49.286;10.788;2023-03-02T05:03:54;15.03;;;10.40;;
3337;SDS011;1682;49.286;10.788;2023-03-02T05:06:22;17.47;;;9.83;;
3337;SDS011;1682;49.286;10.788;2023-03-02T05:08:49;22.17;;;11.13;;
3337;SDS011;1682;49.286;10.788;2023-03-02T05:11:17;21.57;;;13.13;;
3337;SDS011;1682;49.286;10.788;2023-03-02T05:13:47;16.77;;;10.40;;
3337;SDS011;1682;49.286;10.788;2023-03-02T05:16:14;22.57;;;11.10;;
3337;SDS011;1682;49.286;10.788;2023-03-02T05:18:43;14.07;;;9.53;;
3337;SDS011;1682;49.286;10.788;2023-03-02T05:21:10;18.83;;;11.23;;
3337;SDS011;1682;49.286;10.788;2023-03-02T05:23:38;27.50;;;11.53;;
3337;SDS011;1682;49.286;10.788;2023-03-02T05:26:05;20.70;;;11.20;;
3337;SDS011;1682;49.286;10.788;2023-03-02T05:28:32;18.33;;;10.33;;
3337;SDS011;1682;49.286;10.788;2023-03-02T05:31:00;24.93;;;11.37;;
3337;SDS011;1682;49.286;10.788;2023-03-02T05:33:27;16.13;;;10.80;;
3337;SDS011;1682;49.286;10.788;2023-03-02T05:35:55;19.40;;;11.60;;
3337;SDS011;1682;49.286;10.788;2023-03-02T05:38:23;17.57;;;9.00;;
3337;SDS011;1682;49.286;10.788;2023-03-02T05:40:51;19.37;;;11.30;;
3337;SDS011;1682;49.286;10.788;2023-03-02T05:43:19;18.60;;;9.90;;
3337;SDS011;1682;49.286;10.788;2023-03-02T05:45:48;19.10;;;11.83;;
3337;SDS011;1682;49.286;10.788;2023-03-02T05:48:15;24.57;;;10.77;;
3337;SDS011;1682;49.286;10.788;2023-03-02T05:50:42;17.50;;;11.13;;
3337;SDS011;1682;49.286;10.788;2023-03-02T05:53:11;18.23;;;10.37;;
3337;SDS011;1682;49.286;10.788;2023-03-02T05:55:38;18.17;;;10.40;;
3337;SDS011;1682;49.286;10.788;2023-03-02T05:58:05;15.60;;;9.10;;
3337;SDS011;1682;49.286;10.788;2023-03-02T06:00:33;16.90;;;10.60;;
3337;SDS011;1682;49.286;10.788;2023-03-02T06:03:01;18.23;;;10.50;;
3337;SDS011;1682;49.286;10.788;2023-03-02T06:05:28;15.87;;;9.70;;
3337;SDS011;1682;49.286;10.788;2023-03-02T06:07:55;20.20;;;12.13;;
3337;SDS011;1682;49.286;10.788;2023-03-02T06:10:24;21.00;;;10.40;;
3337;SDS011;1682;49.286;10.788;2023-03-02T06:12:51;19.27;;;11.73;;
3337;SDS011;1682;49.286;10.788;2023-03-02T06:15:18;21.93;;;10.10;;
3337;SDS011;1682;49.286;10.788;2023-03-02T06:17:45;16.17;;;11.37;;
3337;SDS011;1682;49.286;10.788;2023-03-02T06:20:13;18.00;;;11.10;;
3337;SDS011;1682;49.286;10.788;2023-03-02T06:22:40;19.33;;;11.33;;
3337;SDS011;1682;49.286;10.788;2023-03-02T06:25:09;23.10;;;13.57;;
3337;SDS011;1682;49.286;10.788;2023-03-02T06:27:38;19.97;;;12.57;;
3337;SDS011;1682;49.286;10.788;2023-03-02T06:30:06;25.00;;;12.73;;
3337;SDS011;1682;49.286;10.788;2023-03-02T06:32:34;17.00;;;12.17;;
3337;SDS011;1682;49.286;10.788;2023-03-02T06:35:01;21.33;;;11.10;;
3337;SDS011;1682;49.286;10.788;2023-03-02T06:37:29;18.90;;;10.80;;
3337;SDS011;1682;49.286;10.788;2023-03-02T06:39:56;25.90;;;12.73;;
3337;SDS011;1682;49.286;10.788;2023-03-02T06:42:24;22.17;;;12.30;;
3337;SDS011;1682;49.286;10.788;2023-03-02T06:44:53;21.93;;;14.20;;
3337;SDS011;1682;49.286;10.788;2023-03-02T06:47:20;19.70;;;11.50;;
3337;SDS011;1682;49.286;10.788;2023-03-02T06:49:47;18.37;;;10.73;;
3337;SDS011;1682;49.286;10.788;2023-03-02T06:52:14;22.23;;;12.00;;
3337;SDS011;1682;49.286;10.788;2023-03-02T06:54:42;24.73;;;12.87;;
3337;SDS011;1682;49.286;10.788;2023-03-02T06:57:09;21.43;;;12.20;;
3337;SDS011;1682;49.286;10.788;2023-03-02T06:59:37;24.60;;;13.57;;
3337;SDS011;1682;49.286;10.788;2023-03-02T07:02:05;17.63;;;10.97;;
3337;SDS011;1682;49.286;10.788;2023-03-02T07:04:33;25.90;;;11.57;;
3337;SDS011;1682;49.286;10.788;2023-03-02T07:07:00;21.63;;;11.60;;
3337;SDS011;1682;49.286;10.788;2023-03-02T07:09:27;21.83;;;13.33;;
3337;SDS011;1682;49.286;10.788;2023-03-02T07:11:55;18.13;;;11.53;;
3337;SDS011;1682;49.286;10.788;2023-03-02T07:14:22;22.53;;;12.80;;
3337;SDS011;1682;49.286;10.788;2023-03-02T07:16:49;23.53;;;13.50;;
3337;SDS011;1682;49.286;10.788;2023-03-02T07:19:18;25.97;;;13.30;;
3337;SDS011;1682;49.286;10.788;2023-03-02T07:21:45;21.70;;;12.53;;
3337;SDS011;1682;49.286;10.788;2023-03-02T07:24:12;22.87;;;13.80;;
3337;SDS011;1682;49.286;10.788;2023-03-02T07:26:40;15.67;;;11.13;;
3337;SDS011;1682;49.286;10.788;2023-03-02T07:29:07;21.33;;;12.30;;
3337;SDS011;1682;49.286;10.788;2023-03-02T07:31:34;18.53;;;12.50;;
3337;SDS011;1682;49.286;10.788;2023-03-02T07:34:01;24.00;;;13.23;;
3337;SDS011;1682;49.286;10.788;2023-03-02T07:36:30;19.43;;;12.67;;
3337;SDS011;1682;49.286;10.788;2023-03-02T07:38:57;17.60;;;12.00;;
3337;SDS011;1682;49.286;10.788;2023-03-02T07:41:24;23.33;;;13.37;;
3337;SDS011;1682;49.286;10.788;2023-03-02T07:43:51;23.60;;;15.40;;
3337;SDS011;1682;49.286;10.788;2023-03-02T07:46:18;20.20;;;12.50;;
3337;SDS011;1682;49.286;10.788;2023-03-02T07:48:46;19.17;;;11.70;;
3337;SDS011;1682;49.286;10.788;2023-03-02T07:51:13;19.63;;;12.33;;
3337;SDS011;1682;49.286;10.788;2023-03-02T07:53:41;23.37;;;12.80;;
3337;SDS011;1682;49.286;10.788;2023-03-02T07:56:09;21.50;;;12.03;;
3337;SDS011;1682;49.286;10.788;2023-03-02T07:58:37;19.43;;;12.30;;
3337;SDS011;1682;49.286;10.788;2023-03-02T08:01:04;23.17;;;13.10;;
3337;SDS011;1682;49.286;10.788;2023-03-02T08:03:31;21.30;;;11.90;;
3337;SDS011;1682;49.286;10.788;2023-03-02T08:06:02;27.63;;;11.50;;
3337;SDS011;1682;49.286;10.788;2023-03-02T08:08:30;27.37;;;13.70;;
3337;SDS011;1682;49.286;10.788;2023-03-02T08:11:03;22.23;;;11.43;;
3337;SDS011;1682;49.286;10.788;2023-03-02T08:13:31;25.20;;;13.40;;
3337;SDS011;1682;49.286;10.788;2023-03-02T08:15:59;21.27;;;11.87;;
3337;SDS011;1682;49.286;10.788;2023-03-02T08:18:26;17.90;;;13.10;;
3337;SDS011;1682;49.286;10.788;2023-03-02T08:20:53;16.40;;;11.37;;
3337;SDS011;1682;49.286;10.788;2023-03-02T08:23:21;21.43;;;12.17;;
3337;SDS011;1682;49.286;10.788;2023-03-02T08:25:48;18.10;;;11.93;;
3337;SDS011;1682;49.286;10.788;2023-03-02T08:28:17;21.07;;;11.33;;
3337;SDS011;1682;49.286;10.788;2023-03-02T08:30:44;20.57;;;11.30;;
3337;SDS011;1682;49.286;10.788;2023-03-02T08:33:20;18.53;;;11.13;;
3337;SDS011;1682;49.286;10.788;2023-03-02T08:35:52;19.70;;;10.87;;
3337;SDS011;1682;49.286;10.788;2023-03-02T08:38:20;17.70;;;12.40;;
3337;SDS011;1682;49.286;10.788;2023-03-02T08:40:48;19.30;;;10.23;;
3337;SDS011;1682;49.286;10.788;2023-03-02T08:43:17;15.37;;;11.20;;
3337;SDS011;1682;49.286;10.788;2023-03-02T08:45:45;17.03;;;10.63;;
3337;SDS011;1682;49.286;10.788;2023-03-02T08:48:16;18.33;;;10.53;;
3337;SDS011;1682;49.286;10.788;2023-03-02T08:50:52;19.47;;;11.77;;
3337;SDS011;1682;49.286;10.788;2023-03-02T08:53:20;23.63;;;12.77;;
3337;SDS011;1682;49.286;10.788;2023-03-02T08:55:47;22.73;;;14.20;;
3337;SDS011;1682;49.286;10.788;2023-03-02T08:58:14;26.50;;;14.10;;
3337;SDS011;1682;49.286;10.788;2023-03-02T09:00:43;25.87;;;12.90;;
3337;SDS011;1682;49.286;10.788;2023-03-02T09:03:10;22.67;;;11.60;;
3337;SDS011;1682;49.286;10.788;2023-03-02T09:05:37;18.57;;;12.30;;
3337;SDS011;1682;49.286;10.788;2023-03-02T09:08:05;25.00;;;14.57;;
3337;SDS011;1682;49.286;10.788;2023-03-02T09:10:32;21.50;;;12.47;;
3337;SDS011;1682;49.286;10.788;2023-03-02T09:12:59;21.07;;;11.37;;
3337;SDS011;1682;49.286;10.788;2023-03-02T09:15:26;18.27;;;12.40;;
3337;SDS011;1682;49.286;10.788;2023-03-02T09:17:55;22.00;;;13.80;;
3337;SDS011;1682;49.286;10.788;2023-03-02T09:20:23;23.97;;;12.60;;
3337;SDS011;1682;49.286;10.788;2023-03-02T09:22:50;16.43;;;12.00;;
3337;SDS011;1682;49.286;10.788;2023-03-02T09:25:17;18.80;;;12.10;;
3337;SDS011;1682;49.286;10.788;2023-03-02T09:27:44;22.53;;;11.60;;
3337;SDS011;1682;49.286;10.788;2023-03-02T09:30:12;15.77;;;11.77;;
3337;SDS011;1682;49.286;10.788;2023-03-02T09:32:40;19.80;;;11.87;;
3337;SDS011;1682;49.286;10.788;2023-03-02T09:35:09;23.10;;;13.83;;
3337;SDS011;1682;49.286;10.788;2023-03-02T09:37:36;19.17;;;12.90;;
3337;SDS011;1682;49.286;10.788;2023-03-02T09:40:05;22.57;;;11.37;;
3337;SDS011;1682;49.286;10.788;2023-03-02T09:42:44;22.23;;;14.70;;
3337;SDS011;1682;49.286;10.788;2023-03-02T09:45:18;17.73;;;10.30;;
3337;SDS011;1682;49.286;10.788;2023-03-02T09:47:49;19.63;;;11.63;;
3337;SDS011;1682;49.286;10.788;2023-03-02T09:50:24;15.87;;;10.20;;
3337;SDS011;1682;49.286;10.788;2023-03-02T09:52:55;21.10;;;10.23;;
3337;SDS011;1682;49.286;10.788;2023-03-02T09:55:27;17.27;;;12.27;;
3337;SDS011;1682;49.286;10.788;2023-03-02T09:57:54;14.67;;;10.80;;
3337;SDS011;1682;49.286;10.788;2023-03-02T10:00:23;24.13;;;11.30;;
3337;SDS011;1682;49.286;10.788;2023-03-02T10:02:53;15.83;;;10.27;;
3337;SDS011;1682;49.286;10.788;2023-03-02T10:05:23;24.43;;;10.07;;
3337;SDS011;1682;49.286;10.788;2023-03-02T10:07:53;19.80;;;9.87;;
3337;SDS011;1682;49.286;10.788;2023-03-02T10:10:23;17.47;;;10.40;;
3337;SDS011;1682;49.286;10.788;2023-03-02T10:12:57;20.93;;;12.00;;
3337;SDS011;1682;49.286;10.788;2023-03-02T10:15:28;17.37;;;10.00;;
3337;SDS011;1682;49.286;10.788;2023-03-02T10:17:58;17.00;;;10.53;;
3337;SDS011;1682;49.286;10.788;2023-03-02T10:20:29;21.17;;;10.17;;
3337;SDS011;1682;49.286;10.788;2023-03-02T10:22:59;24.10;;;9.70;;
3337;SDS011;1682;49.286;10.788;2023-03-02T10:25:30;14.73;;;10.77;;
3337;SDS011;1682;49.286;10.788;2023-03-02T10:28:04;17.70;;;9.97;;
3337;SDS011;1682;49.286;10.788;2023-03-02T10:30:36;28.10;;;11.80;;
3337;SDS011;1682;49.286;10.788;2023-03-02T10:33:08;24.47;;;11.83;;
3337;SDS011;1682;49.286;10.788;2023-03-02T10:35:37;13.43;;;10.77;;
3337;SDS011;1682;49.286;10.788;2023-03-02T10:38:10;20.00;;;12.30;;
3337;SDS011;1682;49.286;10.788;2023-03-02T10:40:39;21.73;;;12.13;;
3337;SDS011;1682;49.286;10.788;2023-03-02T10:43:10;30.27;;;13.07;;
3337;SDS011;1682;49.286;10.788;2023-03-02T10:45:39;21.03;;;13.07;;
3337;SDS011;1682;49.286;10.788;2023-03-02T10:48:08;19.40;;;11.33;;
3337;SDS011;1682;49.286;10.788;2023-03-02T10:50:36;21.43;;;11.87;;
3337;SDS011;1682;49.286;10.788;2023-03-02T10:53:06;18.00;;;10.20;;
3337;SDS011;1682;49.286;10.788;2023-03-02T10:55:33;21.80;;;9.60;;
3337;SDS011;1682;49.286;10.788;2023-03-02T10:58:02;20.97;;;10.83;;
3337;SDS011;1682;49.286;10.788;2023-03-02T11:00:29;17.53;;;10.63;;
3337;SDS011;1682;49.286;10.788;2023-03-02T11:02:58;13.57;;;10.30;;
3337;SDS011;1682;49.286;10.788;2023-03-02T11:05:27;23.67;;;11.30;;
3337;SDS011;1682;49.286;10.788;2023-03-02T11:07:55;16.63;;;10.47;;
3337;SDS011;1682;49.286;10.788;2023-03-02T11:10:25;19.73;;;10.70;;
3337;SDS011;1682;49.286;10.788;2023-03-02T11:12:53;18.10;;;10.97;;
3337;SDS011;1682;49.286;10.788;2023-03-02T11:15:21;16.97;;;12.27;;
3337;SDS011;1682;49.286;10.788;2023-03-02T11:17:52;27.47;;;11.27;;
3337;SDS011;1682;49.286;10.788;2023-03-02T11:20:21;20.57;;;9.63;;
3337;SDS011;1682;49.286;10.788;2023-03-02T11:22:52;20.23;;;10.10;;
3337;SDS011;1682;49.286;10.788;2023-03-02T11:25:24;14.03;;;8.87;;
3337;SDS011;1682;49.286;10.788;2023-03-02T11:27:56;24.83;;;9.60;;
3337;SDS011;1682;49.286;10.788;2023-03-02T11:30:24;17.73;;;9.57;;
3337;SDS011;1682;49.286;10.788;2023-03-02T11:32:56;17.53;;;9.27;;
3337;SDS011;1682;49.286;10.788;2023-03-02T11:35:27;25.47;;;13.73;;
3337;SDS011;1682;49.286;10.788;2023-03-02T11:37:58;14.97;;;8.33;;
3337;SDS011;1682;49.286;10.788;2023-03-02T11:40:29;15.57;;;9.10;;
3337;SDS011;1682;49.286;10.788;2023-03-02T11:42:58;23.90;;;9.10;;
3337;SDS011;1682;49.286;10.788;2023-03-02T11:45:27;11.10;;;7.60;;
3337;SDS011;1682;49.286;10.788;2023-03-02T11:47:57;14.43;;;9.00;;
3337;SDS011;1682;49.286;10.788;2023-03-02T11:50:26;17.60;;;8.07;;
3337;SDS011;1682;49.286;10.788;2023-03-02T11:52:54;16.70;;;9.37;;
3337;SDS011;1682;49.286;10.788;2023-03-02T11:55:23;18.27;;;8.67;;
3337;SDS011;1682;49.286;10.788;2023-03-02T11:57:54;11.00;;;7.97;;
3337;SDS011;1682;49.286;10.788;2023-03-02T12:00:26;17.90;;;10.80;;
3337;SDS011;1682;49.286;10.788;2023-03-02T12:03:02;13.30;;;8.23;;
3337;SDS011;1682;49.286;10.788;2023-03-02T12:05:30;18.13;;;8.60;;
3337;SDS011;1682;49.286;10.788;2023-03-02T12:08:00;15.63;;;8.93;;
3337;SDS011;1682;49.286;10.788;2023-03-02T12:10:32;17.53;;;7.67;;
3337;SDS011;1682;49.286;10.788;2023-03-02T12:13:11;15.20;;;7.70;;
3337;SDS011;1682;49.286;10.788;2023-03-02T12:15:40;17.33;;;10.73;;
3337;SDS011;1682;49.286;10.788;2023-03-02T12:23:40;11.03;;;7.73;;
3337;SDS011;1682;49.286;10.788;2023-03-02T12:26:23;18.43;;;7.90;;
3337;SDS011;1682;49.286;10.788;2023-03-02T12:28:56;11.50;;;8.43;;
3337;SDS011;1682;49.286;10.788;2023-03-02T12:31:25;11.20;;;7.30;;
3337;SDS011;1682;49.286;10.788;2023-03-02T12:33:53;17.00;;;11.17;;
3337;SDS011;1682;49.286;10.788;2023-03-02T12:36:24;11.47;;;7.60;;
3337;SDS011;1682;49.286;10.788;2023-03-02T12:38:57;22.47;;;9.27;;
3337;SDS011;1682;49.286;10.788;2023-03-02T12:41:44;12.65;;;8.10;;
3337;SDS011;1682;49.286;10.788;2023-03-02T12:44:24;11.60;;;7.87;;
3337;SDS011;1682;49.286;10.788;2023-03-02T12:46:55;14.13;;;7.70;;
3337;SDS011;1682;49.286;10.788;2023-03-02T12:49:28;19.33;;;7.50;;
3337;SDS011;1682;49.286;10.788;2023-03-02T12:51:59;9.47;;;7.63;;
3337;SDS011;1682;49.286;10.788;2023-03-02T12:54:28;14.73;;;7.73;;
3337;SDS011;1682;49.286;10.788;2023-03-02T12:57:03;8.50;;;7.43;;
3337;SDS011;1682;49.286;10.788;2023-03-02T12:59:34;10.00;;;8.90;;
3337;SDS011;1682;49.286;10.788;2023-03-02T13:02:18;11.40;;;7.60;;
3337;SDS011;1682;49.286;10.788;2023-03-02T13:04:50;10.30;;;7.83;;
3337;SDS011;1682;49.286;10.788;2023-03-02T13:07:18;17.07;;;8.13;;
3337;SDS011;1682;49.286;10.788;2023-03-02T13:09:48;14.50;;;10.37;;
3337;SDS011;1682;49.286;10.788;2023-03-02T13:12:15;9.07;;;7.40;;
3337;SDS011;1682;49.286;10.788;2023-03-02T13:14:44;17.73;;;8.10;;
3337;SDS011;1682;49.286;10.788;2023-03-02T13:17:19;9.67;;;7.50;;
3337;SDS011;1682;49.286;10.788;2023-03-02T13:19:47;9.27;;;6.67;;
3337;SDS011;1682;49.286;10.788;2023-03-02T13:22:14;13.30;;;7.60;;
3337;SDS011;1682;49.286;10.788;2023-03-02T13:24:43;9.57;;;7.73;;
3337;SDS011;1682;49.286;10.788;2023-03-02T13:27:14;10.67;;;8.20;;
3337;SDS011;1682;49.286;10.788;2023-03-02T13:29:42;11.37;;;7.40;;
3337;SDS011;1682;49.286;10.788;2023-03-02T13:32:16;10.30;;;7.00;;
3337;SDS011;1682;49.286;10.788;2023-03-02T13:34:44;9.63;;;6.90;;
3337;SDS011;1682;49.286;10.788;2023-03-02T13:42:49;10.37;;;6.57;;
3337;SDS011;1682;49.286;10.788;2023-03-02T13:45:20;7.83;;;7.13;;
3337;SDS011;1682;49.286;10.788;2023-03-02T13:47:49;9.07;;;7.63;;
3337;SDS011;1682;49.286;10.788;2023-03-02T13:50:17;8.03;;;7.30;;
3337;SDS011;1682;49.286;10.788;2023-03-02T13:52:45;11.33;;;7.23;;
3337;SDS011;1682;49.286;10.788;2023-03-02T13:55:13;12.90;;;7.00;;
3337;SDS011;1682;49.286;10.788;2023-03-02T13:57:41;7.10;;;5.93;;
3337;SDS011;1682;49.286;10.788;2023-03-02T14:00:12;7.30;;;5.97;;
3337;SDS011;1682;49.286;10.788;2023-03-02T14:02:39;11.83;;;6.60;;
3337;SDS011;1682;49.286;10.788;2023-03-02T14:05:11;9.13;;;6.30;;
3337;SDS011;1682;49.286;10.788;2023-03-02T14:07:41;10.50;;;6.90;;
3337;SDS011;1682;49.286;10.788;2023-03-02T14:10:09;12.47;;;7.40;;
3337;SDS011;1682;49.286;10.788;2023-03-02T14:12:36;9.87;;;7.70;;
3337;SDS011;1682;49.286;10.788;2023-03-02T14:15:06;11.50;;;8.87;;
3337;SDS011;1682;49.286;10.788;2023-03-02T14:17:36;11.40;;;6.70;;
3337;SDS011;1682;49.286;10.788;2023-03-02T14:20:05;13.70;;;7.07;;
3337;SDS011;1682;49.286;10.788;2023-03-02T14:22:34;9.57;;;6.00;;
3337;SDS011;1682;49.286;10.788;2023-03-02T14:25:01;10.03;;;6.53;;
3337;SDS011;1682;49.286;10.788;2023-03-02T14:27:28;8.00;;;6.87;;
3337;SDS011;1682;49.286;10.788;2023-03-02T14:29:56;7.60;;;6.63;;
3337;SDS011;1682;49.286;10.788;2023-03-02T14:32:24;10.77;;;7.70;;
3337;SDS011;1682;49.286;10.788;2023-03-02T14:34:52;12.30;;;6.57;;
3337;SDS011;1682;49.286;10.788;2023-03-02T14:37:20;8.30;;;6.50;;
3337;SDS011;1682;49.286;10.788;2023-03-02T14:39:49;7.40;;;5.70;;
3337;SDS011;1682;49.286;10.788;2023-03-02T14:42:19;12.43;;;7.17;;
3337;SDS011;1682;49.286;10.788;2023-03-02T14:44:48;8.57;;;6.47;;
3337;SDS011;1682;49.286;10.788;2023-03-02T14:47:15;9.93;;;7.40;;
3337;SDS011;1682;49.286;10.788;2023-03-02T14:49:43;9.60;;;6.90;;
3337;SDS011;1682;49.286;10.788;2023-03-02T14:52:11;20.50;;;8.77;;
3337;SDS011;1682;49.286;10.788;2023-03-02T14:54:41;11.03;;;7.13;;
3337;SDS011;1682;49.286;10.788;2023-03-02T14:57:14;11.17;;;7.53;;
3337;SDS011;1682;49.286;10.788;2023-03-02T14:59:42;10.67;;;8.10;;
3337;SDS011;1682;49.286;10.788;2023-03-02T15:02:10;13.67;;;8.00;;